createdAt,value
2023-05-02T00:01:34.395Z,32.03
2023-05-02T00:04:00.697Z,31.60
2023-05-02T00:06:27.437Z,31.92
2023-05-02T00:08:53.677Z,34.55
2023-05-02T00:11:19.936Z,33.03
2023-05-02T00:13:46.139Z,32.67
2023-05-02T00:16:12.440Z,36.33
2023-05-02T00:18:38.707Z,33.78
2023-05-02T00:21:05.319Z,33.15
2023-05-02T00:23:31.544Z,38.65
2023-05-02T00:25:58.058Z,35.35
2023-05-02T00:28:26.299Z,36.03
2023-05-02T00:30:53.012Z,37.80
2023-05-02T00:33:19.326Z,36.00
2023-05-02T00:35:45.560Z,39.40
2023-05-02T00:38:11.768Z,38.58
2023-05-02T00:40:48.469Z,37.45
2023-05-02T00:43:15.407Z,37.17
2023-05-02T00:45:43.298Z,37.78
2023-05-02T00:48:10.464Z,41.42
2023-05-02T00:50:41.992Z,39.40
2023-05-02T00:55:34.738Z,35.22
2023-05-02T00:58:02.040Z,36.65
2023-05-02T01:00:32.938Z,31.58
2023-05-02T01:03:05.619Z,36.30
2023-05-02T01:05:39.312Z,38.92
2023-05-02T01:08:28.571Z,37.42
2023-05-02T01:11:07.076Z,35.83
2023-05-02T01:13:34.829Z,39.15
2023-05-02T01:16:03.084Z,42.28
2023-05-02T01:18:32.285Z,40.50
2023-05-02T01:21:02.888Z,41.90
2023-05-02T01:23:47.013Z,42.50
2023-05-02T01:26:21.241Z,45.63
2023-05-02T01:28:47.409Z,47.30
2023-05-02T01:31:14.635Z,48.75
2023-05-02T01:33:41.510Z,48.72
2023-05-02T01:36:08.807Z,52.80
2023-05-02T01:38:35.834Z,49.30
2023-05-02T01:41:05.242Z,49.50
2023-05-02T01:43:33.001Z,51.35
2023-05-02T01:46:00.007Z,49.53
2023-05-02T01:48:27.473Z,56.17
2023-05-02T01:50:54.594Z,58.45
2023-05-02T01:53:22.436Z,52.90
2023-05-02T01:55:49.004Z,55.17
2023-05-02T01:58:16.745Z,57.90
2023-05-02T02:00:45.238Z,54.90
2023-05-02T02:03:12.010Z,56.50
2023-05-02T02:05:39.764Z,55.08
2023-05-02T02:08:06.030Z,50.30
2023-05-02T02:10:36.546Z,58.20
2023-05-02T02:13:06.164Z,50.85
2023-05-02T02:15:34.884Z,52.50
2023-05-02T02:18:11.888Z,56.75
2023-05-02T02:20:39.026Z,54.63
2023-05-02T02:23:07.289Z,56.35
2023-05-02T02:25:34.508Z,54.33
2023-05-02T02:28:01.088Z,53.72
2023-05-02T02:30:27.289Z,56.75
2023-05-02T02:32:53.506Z,54.88
2023-05-02T02:35:19.902Z,52.70
2023-05-02T02:37:46.276Z,49.63
2023-05-02T02:40:17.069Z,48.60
2023-05-02T02:43:01.016Z,50.80
2023-05-02T02:45:31.784Z,49.42
2023-05-02T02:48:07.385Z,51.00
2023-05-02T02:50:38.254Z,46.30
2023-05-02T02:53:04.493Z,45.97
2023-05-02T02:55:33.622Z,45.70
2023-05-02T02:58:18.796Z,46.88
2023-05-02T03:00:46.072Z,49.88
2023-05-02T03:03:13.910Z,47.55
2023-05-02T03:05:40.841Z,47.10
2023-05-02T03:08:07.198Z,48.20
2023-05-02T03:10:33.758Z,53.28
2023-05-02T03:12:59.966Z,49.17
2023-05-02T03:15:45.067Z,49.42
2023-05-02T03:18:11.362Z,47.90
2023-05-02T03:20:37.925Z,43.13
2023-05-02T03:23:04.172Z,48.05
2023-05-02T03:25:30.383Z,48.60
2023-05-02T03:27:59.765Z,43.92
2023-05-02T03:30:25.981Z,44.38
2023-05-02T03:32:52.369Z,40.58
2023-05-02T03:35:18.807Z,39.47
2023-05-02T03:37:45.528Z,41.97
2023-05-02T03:40:11.889Z,45.47
2023-05-02T03:42:40.095Z,44.38
2023-05-02T03:45:06.721Z,44.38
2023-05-02T03:47:33.343Z,40.67
2023-05-02T03:49:59.897Z,45.45
2023-05-02T03:52:26.500Z,43.47
2023-05-02T03:54:52.704Z,41.92
2023-05-02T03:57:18.899Z,39.95
2023-05-02T03:59:48.061Z,40.58
2023-05-02T04:02:15.671Z,38.90
2023-05-02T04:04:43.121Z,42.22
2023-05-02T04:07:15.562Z,46.08
2023-05-02T04:09:41.798Z,45.20
2023-05-02T04:12:07.986Z,43.60
2023-05-02T04:14:34.232Z,44.42
2023-05-02T04:17:00.560Z,39.85
2023-05-02T04:19:27.202Z,42.72
2023-05-02T04:21:53.410Z,42.75
2023-05-02T04:24:19.611Z,45.50
2023-05-02T04:26:47.448Z,42.15
2023-05-02T04:29:13.695Z,42.22
2023-05-02T04:31:40.291Z,43.10
2023-05-02T04:34:06.812Z,44.10
2023-05-02T04:36:33.964Z,39.65
2023-05-02T04:39:00.213Z,41.42
2023-05-02T04:41:26.788Z,40.22
2023-05-02T04:43:53.010Z,39.47
2023-05-02T04:46:19.282Z,39.97
2023-05-02T04:48:45.610Z,40.80
2023-05-02T04:51:12.004Z,40.97
2023-05-02T04:53:38.239Z,40.97
2023-05-02T04:56:04.635Z,38.53
2023-05-02T04:58:30.943Z,43.88
2023-05-02T05:00:57.145Z,40.47
2023-05-02T05:03:23.367Z,42.30
2023-05-02T05:05:49.671Z,39.95
2023-05-02T05:08:16.115Z,40.00
2023-05-02T05:10:42.383Z,38.17
2023-05-02T05:13:08.591Z,37.63
2023-05-02T05:15:34.803Z,39.03
2023-05-02T05:18:01.075Z,39.15
2023-05-02T05:20:27.310Z,39.10
2023-05-02T05:22:53.771Z,40.45
2023-05-02T05:25:19.987Z,37.45
2023-05-02T05:27:46.573Z,37.50
2023-05-02T05:30:12.864Z,40.15
2023-05-02T05:32:39.124Z,37.67
2023-05-02T05:35:05.538Z,33.33
2023-05-02T05:37:31.773Z,34.15
2023-05-02T05:39:58.164Z,37.88
2023-05-02T05:42:24.496Z,37.92
2023-05-02T05:44:51.535Z,36.42
2023-05-02T05:47:24.051Z,34.05
2023-05-02T05:49:53.886Z,32.60
2023-05-02T05:52:20.128Z,35.88
2023-05-02T05:54:46.528Z,30.42
2023-05-02T05:57:12.724Z,35.55
2023-05-02T05:59:39.028Z,32.00
2023-05-02T06:02:05.600Z,32.67
2023-05-02T06:04:31.938Z,34.60
2023-05-02T06:06:58.255Z,36.85
2023-05-02T06:09:24.524Z,32.80
2023-05-02T06:11:50.817Z,31.70
2023-05-02T06:14:16.998Z,34.70
2023-05-02T06:16:43.287Z,29.52
2023-05-02T06:19:09.489Z,31.77
2023-05-02T06:21:38.614Z,31.80
2023-05-02T06:24:05.140Z,30.42
2023-05-02T06:26:31.389Z,30.75
2023-05-02T06:28:57.586Z,30.92
2023-05-02T06:31:23.838Z,32.38
2023-05-02T06:33:50.161Z,32.75
2023-05-02T06:36:16.396Z,34.22
2023-05-02T06:38:42.601Z,38.22
2023-05-02T06:41:12.861Z,29.52
2023-05-02T06:43:39.155Z,30.05
2023-05-02T06:46:05.365Z,29.02
2023-05-02T06:48:31.593Z,31.30
2023-05-02T06:50:57.869Z,26.60
2023-05-02T06:53:24.079Z,26.00
2023-05-02T06:55:50.738Z,29.58
2023-05-02T06:58:16.969Z,29.55
2023-05-02T07:00:43.242Z,27.63
2023-05-02T07:03:11.179Z,28.05
2023-05-02T07:05:37.545Z,26.40
2023-05-02T07:08:04.576Z,27.92
2023-05-02T07:10:31.162Z,25.95
2023-05-02T07:12:57.446Z,28.75
2023-05-02T07:15:23.640Z,27.38
2023-05-02T07:17:50.333Z,23.27
2023-05-02T07:20:16.700Z,24.92
2023-05-02T07:22:43.137Z,19.02
2023-05-02T07:25:10.806Z,19.17
2023-05-02T07:27:37.056Z,18.17
2023-05-02T07:30:03.789Z,22.83
2023-05-02T07:32:31.117Z,20.10
2023-05-02T07:34:57.623Z,16.80
2023-05-02T07:37:23.886Z,16.80
2023-05-02T07:39:50.203Z,17.67
2023-05-02T07:42:16.463Z,16.65
2023-05-02T07:44:42.656Z,20.52
2023-05-02T07:47:08.932Z,18.65
2023-05-02T07:49:36.724Z,17.63
2023-05-02T07:52:03.834Z,16.33
2023-05-02T07:54:30.100Z,15.88
2023-05-02T07:56:58.623Z,19.15
2023-05-02T07:59:24.939Z,18.48
2023-05-02T08:01:51.164Z,18.20
2023-05-02T08:04:17.653Z,19.15
2023-05-02T08:06:44.597Z,23.88
2023-05-02T08:09:10.862Z,23.83
2023-05-02T08:11:37.363Z,25.17
2023-05-02T08:14:03.621Z,25.02
2023-05-02T08:16:29.970Z,25.65
2023-05-02T08:18:56.308Z,19.13
2023-05-02T08:21:22.641Z,17.58
2023-05-02T08:23:48.901Z,17.83
2023-05-02T08:26:15.886Z,13.13
2023-05-02T08:28:42.133Z,13.70
2023-05-02T08:31:08.334Z,12.20
2023-05-02T08:33:34.569Z,11.10
2023-05-02T08:36:00.852Z,11.10
2023-05-02T08:38:27.141Z,11.15
2023-05-02T08:40:53.434Z,7.82
2023-05-02T08:43:20.019Z,6.22
2023-05-02T08:45:46.263Z,7.70
2023-05-02T08:48:13.611Z,5.05
2023-05-02T08:50:41.723Z,8.02
2023-05-02T08:53:08.808Z,8.57
2023-05-02T08:55:36.313Z,8.77
2023-05-02T08:58:03.174Z,7.55
2023-05-02T09:00:29.757Z,7.75
2023-05-02T09:03:14.845Z,9.13
2023-05-02T09:05:41.609Z,6.97
2023-05-02T09:08:08.512Z,5.18
2023-05-02T09:10:38.492Z,8.70
2023-05-02T09:13:43.264Z,8.18
2023-05-02T09:16:11.137Z,12.23
2023-05-02T09:18:40.113Z,14.90
2023-05-02T09:21:10.770Z,14.45
2023-05-02T09:23:42.402Z,13.77
2023-05-02T09:26:11.773Z,10.98
2023-05-02T09:28:42.478Z,14.23
2023-05-02T09:31:09.774Z,13.13
2023-05-02T09:33:36.521Z,14.02
2023-05-02T09:36:02.956Z,12.98
2023-05-02T09:38:29.335Z,15.52
2023-05-02T09:40:58.292Z,12.30
2023-05-02T09:43:24.652Z,14.10
2023-05-02T09:45:58.271Z,16.60
2023-05-02T09:48:25.119Z,12.55
2023-05-02T09:50:51.421Z,16.17
2023-05-02T09:53:17.699Z,18.85
2023-05-02T09:55:43.992Z,16.70
2023-05-02T09:58:20.318Z,14.65
2023-05-02T10:00:46.734Z,14.55
2023-05-02T10:03:16.114Z,14.60
2023-05-02T10:05:43.066Z,15.13
2023-05-02T10:08:10.211Z,15.60
2023-05-02T10:10:37.221Z,10.55
2023-05-02T10:13:04.806Z,15.18
2023-05-02T10:15:32.424Z,16.17
2023-05-02T10:18:00.937Z,13.60
2023-05-02T10:20:31.160Z,11.98
2023-05-02T10:22:59.193Z,13.70
2023-05-02T10:25:25.552Z,12.57
2023-05-02T10:27:52.084Z,12.18
2023-05-02T10:30:18.595Z,13.15
2023-05-02T10:32:46.125Z,11.65
2023-05-02T10:35:12.540Z,12.93
2023-05-02T10:37:40.175Z,10.30
2023-05-02T10:40:10.207Z,14.48
2023-05-02T10:42:40.907Z,7.82
2023-05-02T10:45:11.646Z,9.70
2023-05-02T10:47:37.964Z,10.43
2023-05-02T10:50:05.081Z,9.88
2023-05-02T10:52:33.939Z,11.25
2023-05-02T10:55:23.593Z,9.70
2023-05-02T10:57:59.382Z,8.38
2023-05-02T11:00:26.997Z,12.60
2023-05-02T11:02:53.336Z,13.02
2023-05-02T11:05:22.993Z,9.07
2023-05-02T11:07:49.465Z,13.65
2023-05-02T11:10:18.526Z,10.80
2023-05-02T11:12:48.924Z,9.43
2023-05-02T11:15:36.327Z,10.68
2023-05-02T11:18:03.471Z,10.07
2023-05-02T11:20:30.959Z,11.68
2023-05-02T11:22:58.179Z,11.23
2023-05-02T11:25:34.867Z,12.55
2023-05-02T11:28:01.617Z,12.32
2023-05-02T11:30:41.939Z,10.98
2023-05-02T11:33:08.298Z,11.30
2023-05-02T11:35:35.708Z,9.43
2023-05-02T11:38:03.562Z,8.70
2023-05-02T11:40:30.395Z,12.27
2023-05-02T11:42:58.504Z,11.20
2023-05-02T11:45:36.093Z,7.97
2023-05-02T11:48:06.789Z,10.60
2023-05-02T11:50:50.098Z,10.27
2023-05-02T11:53:17.471Z,12.13
2023-05-02T11:55:47.709Z,11.45
2023-05-02T11:58:15.746Z,13.63
2023-05-02T12:00:45.877Z,9.50
2023-05-02T12:03:22.632Z,8.32
2023-05-02T12:05:49.560Z,11.13
2023-05-02T12:08:23.792Z,9.25
2023-05-02T12:10:51.789Z,9.23
2023-05-02T12:13:18.107Z,9.15
2023-05-02T12:15:44.772Z,7.30
2023-05-02T12:18:11.346Z,7.68
2023-05-02T12:20:38.544Z,8.13
2023-05-02T12:23:06.839Z,8.73
2023-05-02T12:25:36.684Z,7.60
2023-05-02T12:28:03.328Z,7.97
2023-05-02T12:30:30.244Z,8.95
2023-05-02T12:32:58.802Z,7.78
2023-05-02T12:35:25.471Z,10.38
2023-05-02T12:37:52.291Z,7.40
2023-05-02T12:40:18.778Z,9.88
2023-05-02T12:42:58.453Z,11.73
2023-05-02T12:45:24.991Z,8.02
2023-05-02T12:47:51.286Z,8.40
2023-05-02T12:50:17.598Z,10.23
2023-05-02T12:52:46.606Z,8.05
2023-05-02T12:55:20.199Z,8.00
2023-05-02T12:57:46.788Z,6.53
2023-05-02T13:00:13.659Z,8.93
2023-05-02T13:02:39.916Z,5.03
2023-05-02T13:05:15.536Z,5.63
2023-05-02T13:07:41.778Z,8.07
2023-05-02T13:10:08.153Z,7.45
2023-05-02T13:12:37.066Z,7.75
2023-05-02T13:15:04.652Z,8.77
2023-05-02T13:17:31.449Z,7.45
2023-05-02T13:20:01.522Z,13.27
2023-05-02T13:22:28.519Z,7.68
2023-05-02T13:24:54.886Z,9.60
2023-05-02T13:27:23.988Z,7.43
2023-05-02T13:29:50.284Z,7.07
2023-05-02T13:32:16.519Z,8.88
2023-05-02T13:34:42.796Z,8.88
2023-05-02T13:37:09.364Z,5.18
2023-05-02T13:39:35.765Z,11.90
2023-05-02T13:42:04.521Z,8.10
2023-05-02T13:44:32.267Z,11.65
2023-05-02T13:46:58.480Z,6.18
2023-05-02T13:49:24.825Z,8.57
2023-05-02T13:51:51.418Z,7.88
2023-05-02T13:54:17.692Z,6.18
2023-05-02T13:56:43.902Z,7.03
2023-05-02T13:59:11.020Z,8.55
2023-05-02T14:01:40.272Z,6.88
2023-05-02T14:04:08.623Z,6.93
2023-05-02T14:06:35.443Z,6.32
2023-05-02T14:09:01.781Z,9.82
2023-05-02T14:11:28.146Z,6.80
2023-05-02T14:13:57.277Z,8.90
2023-05-02T14:16:23.603Z,6.13
2023-05-02T14:18:52.756Z,7.00
2023-05-02T14:21:18.987Z,9.90
2023-05-02T14:23:45.339Z,5.35
2023-05-02T14:26:12.648Z,6.07
2023-05-02T14:28:40.322Z,5.68
2023-05-02T14:31:07.109Z,6.63
2023-05-02T14:33:33.723Z,7.00
2023-05-02T14:35:59.965Z,5.20
2023-05-02T14:38:26.198Z,9.52
2023-05-02T14:40:52.422Z,5.28
2023-05-02T14:43:18.636Z,7.43
2023-05-02T14:45:44.833Z,5.35
2023-05-02T14:48:13.811Z,7.50
2023-05-02T14:50:40.824Z,4.75
2023-05-02T14:53:07.193Z,4.93
2023-05-02T14:55:36.875Z,6.97
2023-05-02T14:58:03.264Z,4.28
2023-05-02T15:00:29.565Z,6.95
2023-05-02T15:02:55.865Z,8.35
2023-05-02T15:05:22.849Z,5.97
2023-05-02T15:07:49.252Z,7.90
2023-05-02T15:10:15.600Z,9.07
2023-05-02T15:12:43.065Z,10.05
2023-05-02T15:15:09.544Z,8.02
2023-05-02T15:17:35.797Z,11.07
2023-05-02T15:20:02.331Z,7.35
2023-05-02T15:22:29.138Z,9.68
2023-05-02T15:24:55.508Z,6.78
2023-05-02T15:27:21.724Z,6.90
2023-05-02T15:29:47.956Z,9.57
2023-05-02T15:32:14.308Z,7.47
2023-05-02T15:34:40.605Z,5.57
2023-05-02T15:37:06.881Z,5.45
2023-05-02T15:39:33.299Z,9.00
2023-05-02T15:42:03.655Z,5.25
2023-05-02T15:44:30.014Z,8.38
2023-05-02T15:46:56.261Z,6.18
2023-05-02T15:49:24.450Z,6.00
2023-05-02T15:51:50.741Z,8.20
2023-05-02T15:54:16.933Z,7.20
2023-05-02T15:56:43.138Z,7.65
2023-05-02T15:59:09.709Z,8.63
2023-05-02T16:01:36.041Z,7.18
2023-05-02T16:04:02.315Z,8.82
2023-05-02T16:06:28.708Z,9.43
2023-05-02T16:08:55.004Z,4.10
2023-05-02T16:11:21.280Z,6.65
2023-05-02T16:13:47.555Z,6.13
2023-05-02T16:16:13.853Z,9.15
2023-05-02T16:18:40.048Z,6.85
2023-05-02T16:21:06.561Z,6.55
2023-05-02T16:23:32.839Z,6.45
2023-05-02T16:25:59.552Z,5.43
2023-05-02T16:28:25.896Z,9.15
2023-05-02T16:30:52.443Z,7.82
2023-05-02T16:33:18.884Z,6.22
2023-05-02T16:35:45.106Z,6.75
2023-05-02T16:38:11.854Z,7.70
2023-05-02T16:40:38.108Z,5.30
2023-05-02T16:43:04.306Z,5.32
2023-05-02T16:45:31.010Z,9.15
2023-05-02T16:47:57.728Z,10.25
2023-05-02T16:50:24.026Z,7.38
2023-05-02T16:52:50.380Z,6.40
2023-05-02T16:55:16.788Z,12.30
2023-05-02T16:57:42.995Z,6.95
2023-05-02T17:00:11.546Z,8.10
2023-05-02T17:02:38.149Z,5.75
2023-05-02T17:05:04.599Z,9.38
2023-05-02T17:07:30.928Z,8.70
2023-05-02T17:09:57.357Z,8.85
2023-05-02T17:12:23.617Z,7.70
2023-05-02T17:14:49.895Z,6.25
2023-05-02T17:17:18.930Z,9.23
2023-05-02T17:19:45.190Z,6.70
2023-05-02T17:22:12.182Z,11.07
2023-05-02T17:24:38.798Z,10.98
2023-05-02T17:27:06.421Z,8.43
2023-05-02T17:29:33.906Z,9.25
2023-05-02T17:32:01.281Z,11.43
2023-05-02T17:34:28.518Z,6.90
2023-05-02T17:36:54.774Z,5.63
2023-05-02T17:39:20.977Z,7.15
2023-05-02T17:41:47.169Z,6.70
2023-05-02T17:44:13.396Z,7.82
2023-05-02T17:46:39.700Z,9.02
2023-05-02T17:49:06.450Z,9.00
2023-05-02T17:51:33.826Z,6.25
2023-05-02T17:54:00.626Z,8.07
2023-05-02T17:56:27.415Z,9.30
2023-05-02T17:58:53.723Z,5.85
2023-05-02T18:01:19.951Z,9.70
2023-05-02T18:03:47.246Z,11.00
2023-05-02T18:06:16.907Z,8.75
2023-05-02T18:08:43.783Z,6.57
2023-05-02T18:11:13.894Z,7.63
2023-05-02T18:13:40.090Z,8.40
2023-05-02T18:16:06.309Z,8.88
2023-05-02T18:18:33.009Z,6.88
2023-05-02T18:20:59.421Z,9.18
2023-05-02T18:23:25.638Z,8.13
2023-05-02T18:25:51.835Z,7.47
2023-05-02T18:28:18.063Z,8.98
2023-05-02T18:30:44.380Z,8.35
2023-05-02T18:33:10.829Z,7.85
2023-05-02T18:35:37.113Z,7.07
2023-05-02T18:38:06.085Z,9.35
2023-05-02T18:40:32.339Z,9.52
2023-05-02T18:42:58.616Z,11.00
2023-05-02T18:45:25.237Z,8.18
2023-05-02T18:47:51.457Z,9.75
2023-05-02T18:50:18.167Z,10.52
2023-05-02T18:52:44.369Z,7.88
2023-05-02T18:55:11.399Z,8.77
2023-05-02T18:57:37.656Z,9.68
2023-05-02T19:00:06.176Z,9.15
2023-05-02T19:02:32.721Z,7.38
2023-05-02T19:04:59.097Z,7.88
2023-05-02T19:07:25.465Z,7.30
2023-05-02T19:09:52.250Z,8.23
2023-05-02T19:12:18.519Z,7.13
2023-05-02T19:14:44.827Z,8.15
2023-05-02T19:17:11.018Z,7.28
2023-05-02T19:19:37.303Z,7.80
2023-05-02T19:22:03.686Z,5.45
2023-05-02T19:24:30.070Z,10.43
2023-05-02T19:26:57.638Z,7.13
2023-05-02T19:29:23.880Z,6.80
2023-05-02T19:31:50.208Z,6.80
2023-05-02T19:34:16.452Z,6.55
2023-05-02T19:36:42.691Z,10.73
2023-05-02T19:39:10.573Z,8.90
2023-05-02T19:41:36.804Z,7.68
2023-05-02T19:44:03.013Z,9.93
2023-05-02T19:46:30.120Z,7.65
2023-05-02T19:48:56.415Z,7.05
2023-05-02T19:51:25.588Z,9.23
2023-05-02T19:53:58.316Z,8.68
2023-05-02T19:56:25.572Z,7.63
2023-05-02T19:58:51.774Z,5.78
2023-05-02T20:01:18.027Z,11.02
2023-05-02T20:03:44.431Z,10.90
2023-05-02T20:06:10.772Z,10.75
2023-05-02T20:08:37.303Z,10.77
2023-05-02T20:11:03.508Z,11.60
2023-05-02T20:13:29.801Z,9.73
2023-05-02T20:15:56.017Z,13.25
2023-05-02T20:18:22.218Z,9.35
2023-05-02T20:20:48.423Z,9.85
2023-05-02T20:23:14.658Z,10.88
2023-05-02T20:25:42.559Z,11.15
2023-05-02T20:28:09.260Z,12.60
2023-05-02T20:30:35.691Z,11.27
2023-05-02T20:33:13.907Z,12.35
2023-05-02T20:35:42.259Z,13.50
2023-05-02T20:38:08.509Z,13.25
2023-05-02T20:40:35.124Z,14.18
2023-05-02T20:43:01.928Z,10.45
2023-05-02T20:45:28.237Z,12.30
2023-05-02T20:47:54.452Z,8.52
2023-05-02T20:50:20.885Z,11.43
2023-05-02T20:52:47.089Z,11.10
2023-05-02T20:55:13.331Z,11.15
2023-05-02T20:57:39.882Z,14.45
2023-05-02T21:00:06.433Z,13.18
2023-05-02T21:02:32.689Z,10.63
2023-05-02T21:04:58.980Z,9.77
2023-05-02T21:07:25.231Z,11.50
2023-05-02T21:09:51.677Z,10.63
2023-05-02T21:12:17.967Z,10.20
2023-05-02T21:14:44.161Z,10.90
2023-05-02T21:17:10.341Z,10.05
2023-05-02T21:19:37.637Z,10.18
2023-05-02T21:22:04.154Z,11.73
2023-05-02T21:24:30.474Z,14.00
2023-05-02T21:26:56.700Z,11.80
2023-05-02T21:29:22.923Z,9.65
2023-05-02T21:31:49.230Z,12.23
2023-05-02T21:34:15.861Z,11.35
2023-05-02T21:36:43.159Z,10.77
2023-05-02T21:39:09.704Z,11.30
2023-05-02T21:41:36.063Z,11.77
2023-05-02T21:44:02.306Z,13.20
2023-05-02T21:46:28.754Z,11.20
2023-05-02T21:48:55.008Z,11.77
2023-05-02T21:51:21.256Z,13.65
2023-05-02T21:53:47.578Z,12.32
2023-05-02T21:56:13.775Z,10.38
2023-05-02T21:58:40.010Z,12.77
2023-05-02T22:01:06.353Z,11.48
2023-05-02T22:03:34.519Z,12.75
2023-05-02T22:06:05.652Z,10.73
2023-05-02T22:08:32.099Z,9.70
2023-05-02T22:10:58.745Z,10.57
2023-05-02T22:13:25.307Z,11.25
2023-05-02T22:15:52.006Z,12.23
2023-05-02T22:18:18.248Z,14.80
2023-05-02T22:20:45.074Z,12.90
2023-05-02T22:23:11.900Z,15.27
2023-05-02T22:25:39.849Z,14.55
2023-05-02T22:28:06.940Z,10.23
2023-05-02T22:30:33.931Z,9.20
2023-05-02T22:33:01.945Z,13.75
2023-05-02T22:35:28.347Z,14.05
2023-05-02T22:37:54.922Z,12.38
2023-05-02T22:40:21.203Z,14.32
2023-05-02T22:42:47.426Z,12.63
2023-05-02T22:45:13.708Z,13.18
2023-05-02T22:47:40.350Z,12.55
2023-05-02T22:50:11.057Z,11.07
2023-05-02T22:52:37.983Z,11.68
2023-05-02T22:55:09.002Z,14.73
2023-05-02T22:57:35.805Z,11.10
2023-05-02T23:00:02.604Z,9.18
2023-05-02T23:02:29.152Z,13.43
2023-05-02T23:04:55.745Z,11.05
2023-05-02T23:07:22.185Z,13.73
2023-05-02T23:09:48.407Z,10.02
2023-05-02T23:12:14.729Z,10.90
2023-05-02T23:14:41.370Z,11.02
2023-05-02T23:17:07.595Z,11.60
2023-05-02T23:19:33.874Z,11.23
2023-05-02T23:22:00.335Z,8.43
2023-05-02T23:24:26.532Z,11.48
2023-05-02T23:26:52.824Z,13.02
2023-05-02T23:29:19.023Z,10.77
2023-05-02T23:31:45.436Z,10.27
2023-05-02T23:34:12.239Z,9.05
2023-05-02T23:36:39.165Z,10.65
2023-05-02T23:39:06.110Z,10.85
2023-05-02T23:41:32.385Z,6.82
2023-05-02T23:43:58.581Z,10.25
2023-05-02T23:46:25.240Z,10.05
2023-05-02T23:48:51.474Z,8.52
2023-05-02T23:51:17.798Z,11.00
2023-05-02T23:53:44.003Z,8.65
2023-05-02T23:56:10.273Z,10.15
2023-05-02T23:58:36.514Z,11.48
